Wolfcreek, Wisconsin
Current Conditions -  °F | °C
As of 9:35 AM on Friday 19 Dec 2014 (Local Time) from KOEO Reporting Station
Light Snow Light Snow  
Wind Chill: -9°   Ceiling: 3200
Heat Index: -4°   Visibility: 7mi
Dew Point: -7°   Wind: 7mph
Humidity: 84%   Direction: 140°SE
Pressure: 30.28"   Gusts: NA
Location:  45.4182°N, 92.6295°W
Report Text: KOEO 191535Z AUTO 14006KT 7SM -SN OVC032 M04/M07 A3028 RMK AO2 T10431066
Loading
Personal Weather Stations






























Interactive Weather Map New forecast layout! Learn more

10-Day Weather Forecast

Advertisements
Track Severe Weather on mobile